createdAt,value
2022-11-12T00:01:18.039Z,10.57
2022-11-12T00:03:46.154Z,10.57
2022-11-12T00:06:14.301Z,10.57
2022-11-12T00:08:42.298Z,10.58
2022-11-12T00:11:10.331Z,10.59
2022-11-12T00:13:38.640Z,10.59
2022-11-12T00:16:09.970Z,10.53
2022-11-12T00:18:38.003Z,10.48
2022-11-12T00:21:06.139Z,10.51
2022-11-12T00:23:34.223Z,10.52
2022-11-12T00:26:03.433Z,10.47
2022-11-12T00:28:37.420Z,10.45
2022-11-12T00:31:12.378Z,10.44
2022-11-12T00:33:42.694Z,10.40
2022-11-12T00:36:11.371Z,10.38
2022-11-12T00:38:39.580Z,10.35
2022-11-12T00:41:07.627Z,10.32
2022-11-12T00:43:35.692Z,10.29
2022-11-12T00:46:03.916Z,10.33
2022-11-12T00:48:33.345Z,10.30
2022-11-12T00:51:02.768Z,10.24
2022-11-12T00:53:31.058Z,10.24
2022-11-12T00:56:03.460Z,10.24
2022-11-12T00:58:32.152Z,10.22
2022-11-12T01:01:07.898Z,10.21
2022-11-12T01:03:37.615Z,10.19
2022-11-12T01:06:06.598Z,10.21
2022-11-12T01:08:34.849Z,10.19
2022-11-12T01:11:11.691Z,10.21
2022-11-12T01:13:44.137Z,10.15
2022-11-12T01:16:15.511Z,10.10
2022-11-12T01:18:45.187Z,10.15
2022-11-12T01:21:14.389Z,10.13
2022-11-12T01:23:43.579Z,10.11
2022-11-12T01:26:13.975Z,10.07
2022-11-12T01:28:42.165Z,10.07
2022-11-12T01:31:15.743Z,10.00
2022-11-12T01:33:46.586Z,9.98
2022-11-12T01:36:15.988Z,10.00
2022-11-12T01:38:45.310Z,9.98
2022-11-12T01:41:15.843Z,9.98
2022-11-12T01:43:43.916Z,9.97
2022-11-12T01:46:20.842Z,9.99
2022-11-12T01:48:55.117Z,10.14
2022-11-12T01:51:26.930Z,10.27
2022-11-12T01:53:58.603Z,10.13
2022-11-12T01:56:28.648Z,10.02
2022-11-12T01:59:01.913Z,9.98
2022-11-12T02:01:30.144Z,9.97
2022-11-12T02:04:00.595Z,10.07
2022-11-12T02:06:28.754Z,10.11
2022-11-12T02:08:58.291Z,10.06
2022-11-12T02:11:26.330Z,10.04
2022-11-12T02:14:01.487Z,9.96
2022-11-12T02:16:34.620Z,9.91
2022-11-12T02:19:06.086Z,9.87
2022-11-12T02:21:36.088Z,9.85
2022-11-12T02:24:06.644Z,9.79
2022-11-12T02:26:38.038Z,9.73
2022-11-12T02:29:07.439Z,9.76
2022-11-12T02:31:35.481Z,9.70
2022-11-12T02:34:03.928Z,9.61
2022-11-12T02:36:32.121Z,9.60
2022-11-12T02:39:01.734Z,9.60
2022-11-12T02:41:29.790Z,9.56
2022-11-12T02:43:57.984Z,9.64
2022-11-12T02:46:26.023Z,9.52
2022-11-12T02:48:54.063Z,9.59
2022-11-12T02:51:22.094Z,9.50
2022-11-12T02:53:50.542Z,9.49
2022-11-12T02:56:19.901Z,9.41
2022-11-12T02:58:47.993Z,9.35
2022-11-12T03:01:16.162Z,9.49
2022-11-12T03:03:44.330Z,9.48
2022-11-12T03:06:12.579Z,9.43
2022-11-12T03:08:40.607Z,9.32
2022-11-12T03:11:10.672Z,9.33
2022-11-12T03:13:40.504Z,9.33
2022-11-12T03:16:09.300Z,9.31
2022-11-12T03:18:37.765Z,9.26
2022-11-12T03:21:06.238Z,9.22
2022-11-12T03:23:34.508Z,9.16
2022-11-12T03:26:04.989Z,9.23
2022-11-12T03:28:33.074Z,9.24
2022-11-12T03:31:02.852Z,9.21
2022-11-12T03:33:30.858Z,9.25
2022-11-12T03:35:58.828Z,9.32
2022-11-12T03:38:27.262Z,9.27
2022-11-12T03:40:55.399Z,9.19
2022-11-12T03:43:23.389Z,9.07
2022-11-12T03:45:51.554Z,9.02
2022-11-12T03:48:21.163Z,9.04
2022-11-12T03:50:49.115Z,9.03
2022-11-12T03:53:17.158Z,8.98
2022-11-12T03:55:45.255Z,9.01
2022-11-12T03:58:13.305Z,9.08
2022-11-12T04:00:41.304Z,9.22
2022-11-12T04:03:09.440Z,9.21
2022-11-12T04:05:56.880Z,9.13
2022-11-12T04:08:38.430Z,9.12
2022-11-12T04:11:09.629Z,9.12
2022-11-12T04:13:38.609Z,9.11
2022-11-12T04:16:26.815Z,9.09
2022-11-12T04:19:14.307Z,9.06
2022-11-12T04:21:56.085Z,9.04
2022-11-12T04:24:44.508Z,9.03
2022-11-12T04:27:16.131Z,9.03
2022-11-12T04:30:02.285Z,9.02
2022-11-12T04:32:31.276Z,8.99
2022-11-12T04:34:59.957Z,9.00
2022-11-12T04:37:44.508Z,8.99
2022-11-12T04:40:31.572Z,9.01
2022-11-12T04:43:16.989Z,8.98
2022-11-12T04:45:46.764Z,8.96
2022-11-12T04:48:14.791Z,8.96
2022-11-12T04:50:43.481Z,8.98
2022-11-12T04:53:12.933Z,9.00
2022-11-12T04:55:41.250Z,8.98
2022-11-12T04:58:09.322Z,9.10
2022-11-12T05:00:37.338Z,9.09
2022-11-12T05:03:06.777Z,9.03
2022-11-12T05:05:35.154Z,9.05
2022-11-12T05:08:03.735Z,9.09
2022-11-12T05:10:33.488Z,9.16
2022-11-12T05:13:01.886Z,9.18
2022-11-12T05:15:29.926Z,9.14
2022-11-12T05:17:57.969Z,9.21
2022-11-12T05:20:26.052Z,9.15
2022-11-12T05:23:06.428Z,9.08
2022-11-12T05:25:39.562Z,9.07
2022-11-12T05:28:07.608Z,8.96
2022-11-12T05:30:36.791Z,8.87
2022-11-12T05:33:05.223Z,8.75
2022-11-12T05:35:33.247Z,8.58
2022-11-12T05:38:01.286Z,8.49
2022-11-12T05:40:29.352Z,8.59
2022-11-12T05:42:58.812Z,8.67
2022-11-12T05:45:26.948Z,8.76
2022-11-12T05:47:55.014Z,8.73
2022-11-12T05:50:23.278Z,8.82
2022-11-12T05:52:52.249Z,8.64
2022-11-12T05:55:21.241Z,8.48
2022-11-12T05:57:49.287Z,8.43
2022-11-12T06:00:19.588Z,8.51
2022-11-12T06:02:47.795Z,8.65
2022-11-12T06:05:16.052Z,8.63
2022-11-12T06:07:44.179Z,8.74
2022-11-12T06:10:17.532Z,8.87
2022-11-12T06:12:48.358Z,8.72
2022-11-12T06:15:17.582Z,8.72
2022-11-12T06:17:47.182Z,8.69
2022-11-12T06:20:15.304Z,8.70
2022-11-12T06:22:43.344Z,8.77
2022-11-12T06:25:11.485Z,8.77
2022-11-12T06:27:39.684Z,8.74
2022-11-12T06:30:09.384Z,8.76
2022-11-12T06:32:37.594Z,8.76
2022-11-12T06:35:08.279Z,8.74
2022-11-12T06:37:36.553Z,8.79
2022-11-12T06:40:05.328Z,8.74
2022-11-12T06:42:33.745Z,8.72
2022-11-12T06:45:02.154Z,8.79
2022-11-12T06:47:30.308Z,8.81
2022-11-12T06:49:58.519Z,8.84
2022-11-12T06:52:28.063Z,8.87
2022-11-12T06:54:56.207Z,8.85
2022-11-12T06:57:24.295Z,8.90
2022-11-12T06:59:52.339Z,8.84
2022-11-12T07:02:20.337Z,8.91
2022-11-12T07:04:48.868Z,8.97
2022-11-12T07:07:17.124Z,8.99
2022-11-12T07:09:46.571Z,9.05
2022-11-12T07:12:14.622Z,9.08
2022-11-12T07:14:42.668Z,9.09
2022-11-12T07:17:10.719Z,9.11
2022-11-12T07:19:44.750Z,9.19
2022-11-12T07:22:12.916Z,9.23
2022-11-12T07:24:41.277Z,9.27
2022-11-12T07:27:10.805Z,9.27
2022-11-12T07:29:47.538Z,9.35
2022-11-12T07:32:16.314Z,9.31
2022-11-12T07:34:44.478Z,9.20
2022-11-12T07:37:12.596Z,9.40
2022-11-12T07:39:40.701Z,9.32
2022-11-12T07:42:10.203Z,9.26
2022-11-12T07:44:38.276Z,9.24
2022-11-12T07:47:06.502Z,9.26
2022-11-12T07:49:34.588Z,9.30
2022-11-12T07:52:02.748Z,9.21
2022-11-12T07:54:30.738Z,9.21
2022-11-12T07:56:58.977Z,9.17
2022-11-12T07:59:28.423Z,9.02
2022-11-12T08:01:56.985Z,9.01
2022-11-12T08:04:25.054Z,8.98
2022-11-12T08:06:53.163Z,8.92
2022-11-12T08:09:21.237Z,8.91
2022-11-12T08:11:49.469Z,8.89
2022-11-12T08:14:17.547Z,8.92
2022-11-12T08:16:47.292Z,8.87
2022-11-12T08:19:15.355Z,8.85
2022-11-12T08:21:43.455Z,8.90
2022-11-12T08:24:11.585Z,9.01
2022-11-12T08:26:39.602Z,9.02
2022-11-12T08:29:08.834Z,9.07
2022-11-12T08:31:37.899Z,9.04
2022-11-12T08:34:15.200Z,9.07
2022-11-12T08:36:45.556Z,9.07
2022-11-12T08:39:13.610Z,9.11
2022-11-12T08:41:41.825Z,9.09
2022-11-12T08:44:09.829Z,9.09
2022-11-12T08:46:37.894Z,9.14
2022-11-12T08:49:07.414Z,9.12
2022-11-12T08:51:35.513Z,9.10
2022-11-12T08:54:03.567Z,9.02
2022-11-12T08:56:31.625Z,9.09
2022-11-12T08:59:01.786Z,9.25
2022-11-12T09:01:33.252Z,9.32
2022-11-12T09:04:01.404Z,9.41
2022-11-12T09:06:31.194Z,9.33
2022-11-12T09:08:59.262Z,9.32
2022-11-12T09:11:27.537Z,9.45
2022-11-12T09:13:55.932Z,9.57
2022-11-12T09:16:24.315Z,9.58
2022-11-12T09:18:52.425Z,9.51
2022-11-12T09:21:24.751Z,9.74
2022-11-12T09:23:54.309Z,9.87
2022-11-12T09:26:22.437Z,9.92
2022-11-12T09:28:52.450Z,9.85
2022-11-12T09:31:20.750Z,9.95
2022-11-12T09:33:48.905Z,9.94
2022-11-12T09:36:17.715Z,9.93
2022-11-12T09:38:45.784Z,9.88
2022-11-12T09:41:21.561Z,9.78
2022-11-12T09:43:52.672Z,9.81
2022-11-12T09:46:30.454Z,9.99
2022-11-12T09:49:04.763Z,9.97
2022-11-12T09:51:37.387Z,10.16
2022-11-12T09:54:15.077Z,10.24
2022-11-12T09:56:44.922Z,10.31
2022-11-12T09:59:14.141Z,10.46
2022-11-12T10:01:50.366Z,10.33
2022-11-12T10:04:35.146Z,10.22
2022-11-12T10:07:07.987Z,10.31
2022-11-12T10:09:46.258Z,10.25
2022-11-12T10:12:34.673Z,10.19
2022-11-12T10:15:38.850Z,10.07
2022-11-12T10:18:11.721Z,9.93
2022-11-12T10:20:50.368Z,9.93
2022-11-12T10:23:22.198Z,9.77
2022-11-12T10:25:53.319Z,9.87
2022-11-12T10:28:33.016Z,9.96
2022-11-12T10:31:12.381Z,9.99
2022-11-12T10:33:40.918Z,10.04
2022-11-12T10:36:30.369Z,9.91
2022-11-12T10:38:58.607Z,10.00
2022-11-12T10:41:28.368Z,10.08
2022-11-12T10:44:02.565Z,10.13
2022-11-12T10:46:33.491Z,10.22
2022-11-12T10:49:04.379Z,10.34
2022-11-12T10:51:35.136Z,10.29
2022-11-12T10:54:22.686Z,9.96
2022-11-12T10:56:55.691Z,9.96
2022-11-12T10:59:26.106Z,9.92
2022-11-12T11:01:58.955Z,9.94
2022-11-12T11:04:32.098Z,9.86
2022-11-12T11:07:03.904Z,9.71
2022-11-12T11:09:33.011Z,9.69
2022-11-12T11:12:01.620Z,9.72
2022-11-12T11:14:38.496Z,9.73
2022-11-12T11:17:09.385Z,9.60
2022-11-12T11:19:41.470Z,9.44
2022-11-12T11:22:25.757Z,9.46
2022-11-12T11:25:07.485Z,9.42
2022-11-12T11:27:42.670Z,9.41
2022-11-12T11:30:15.531Z,9.40
2022-11-12T11:33:02.912Z,9.33
2022-11-12T11:35:44.577Z,9.34
2022-11-12T11:38:33.023Z,9.29
2022-11-12T11:41:12.850Z,9.51
2022-11-12T11:43:50.933Z,9.55
2022-11-12T11:46:37.228Z,9.58
2022-11-12T11:49:32.933Z,9.54
2022-11-12T11:52:10.653Z,9.54
2022-11-12T11:54:53.997Z,9.55
2022-11-12T11:57:29.650Z,9.57
2022-11-12T12:00:12.357Z,9.47
2022-11-12T12:03:00.798Z,9.48
2022-11-12T12:05:41.186Z,9.33
2022-11-12T12:08:15.487Z,9.24
2022-11-12T12:11:10.983Z,9.21
2022-11-12T12:13:54.935Z,9.23
2022-11-12T12:16:41.227Z,9.18
2022-11-12T12:19:21.159Z,9.31
2022-11-12T12:21:52.077Z,9.53
2022-11-12T12:24:25.215Z,9.50
2022-11-12T12:26:57.587Z,9.54
2022-11-12T12:29:31.272Z,9.53
2022-11-12T12:32:06.547Z,9.49
2022-11-12T12:34:41.332Z,9.45
2022-11-12T12:37:18.551Z,9.36
2022-11-12T12:39:56.655Z,9.31
2022-11-12T12:42:31.744Z,9.29
2022-11-12T12:45:04.889Z,9.26
2022-11-12T12:47:39.625Z,9.21
2022-11-12T12:50:15.114Z,9.16
2022-11-12T12:53:03.329Z,9.22
2022-11-12T12:55:42.623Z,9.24
2022-11-12T12:58:25.264Z,9.27
2022-11-12T13:00:59.139Z,9.26
2022-11-12T13:03:53.088Z,9.24
2022-11-12T13:06:28.692Z,9.29
2022-11-12T13:09:01.015Z,9.27
2022-11-12T13:12:17.759Z,9.23
2022-11-12T13:15:07.798Z,9.20
2022-11-12T13:17:48.532Z,9.25
2022-11-12T13:20:35.480Z,9.26
2022-11-12T13:23:11.791Z,9.20
2022-11-12T13:25:40.595Z,9.14
2022-11-12T13:28:10.946Z,9.13
2022-11-12T13:31:03.556Z,9.22
2022-11-12T13:33:34.050Z,9.22
2022-11-12T13:36:32.376Z,9.27
2022-11-12T13:39:16.240Z,9.22
2022-11-12T13:42:01.869Z,9.20
2022-11-12T13:44:30.854Z,9.24
2022-11-12T13:46:58.986Z,9.20
2022-11-12T13:49:28.282Z,9.15
2022-11-12T13:51:57.006Z,9.07
2022-11-12T13:54:37.970Z,9.15
2022-11-12T13:57:29.381Z,9.06
2022-11-12T14:00:25.811Z,9.18
2022-11-12T14:02:57.676Z,9.18
2022-11-12T14:05:27.917Z,9.16
2022-11-12T14:08:13.967Z,9.18
2022-11-12T14:10:55.784Z,9.28
2022-11-12T14:14:02.254Z,9.24
2022-11-12T14:16:42.399Z,9.08
2022-11-12T14:19:37.511Z,9.00
2022-11-12T14:22:16.281Z,9.09
2022-11-12T14:24:45.939Z,9.18
2022-11-12T14:27:35.495Z,9.15
2022-11-12T14:30:22.975Z,9.12
2022-11-12T14:32:53.386Z,9.18
2022-11-12T14:35:33.419Z,9.11
2022-11-12T14:38:16.831Z,9.13
2022-11-12T14:40:48.401Z,9.08
2022-11-12T14:43:32.708Z,9.28
2022-11-12T14:46:02.974Z,9.20
2022-11-12T14:48:36.507Z,9.22
2022-11-12T14:51:10.281Z,9.24
2022-11-12T14:53:42.789Z,9.20
2022-11-12T14:56:18.099Z,9.22
2022-11-12T14:58:47.845Z,9.28
2022-11-12T15:01:55.626Z,9.26
2022-11-12T15:04:20.858Z,9.23
2022-11-12T15:06:58.645Z,9.29
2022-11-12T15:09:35.162Z,9.29
2022-11-12T15:12:05.857Z,9.29
2022-11-12T15:14:36.689Z,9.26
2022-11-12T15:17:06.166Z,9.28
2022-11-12T15:19:36.468Z,9.25
2022-11-12T15:22:05.637Z,9.26
2022-11-12T15:24:35.928Z,9.33
2022-11-12T15:27:35.900Z,9.35
2022-11-12T15:30:17.386Z,9.31
2022-11-12T15:32:46.473Z,9.31
2022-11-12T15:35:37.065Z,9.29
2022-11-12T15:38:11.908Z,9.34
2022-11-12T15:40:45.774Z,9.36
2022-11-12T15:43:19.701Z,9.38
2022-11-12T15:45:51.753Z,9.30
2022-11-12T15:48:20.054Z,9.28
2022-11-12T15:50:48.637Z,9.28
2022-11-12T15:53:17.359Z,9.23
2022-11-12T15:55:46.729Z,9.27
2022-11-12T15:58:18.746Z,9.31
2022-11-12T16:00:47.524Z,9.29
2022-11-12T16:03:20.204Z,9.32
2022-11-12T16:05:48.945Z,9.29
2022-11-12T16:08:17.250Z,9.32
2022-11-12T16:10:47.518Z,9.40
2022-11-12T16:13:18.055Z,9.32
2022-11-12T16:15:46.712Z,9.37
2022-11-12T16:18:16.294Z,9.34
2022-11-12T16:20:44.346Z,9.41
2022-11-12T16:23:12.477Z,9.18
2022-11-12T16:25:43.144Z,9.07
2022-11-12T16:28:15.795Z,9.29
2022-11-12T16:30:46.322Z,9.23
2022-11-12T16:33:17.233Z,9.32
2022-11-12T16:35:45.339Z,9.18
2022-11-12T16:38:15.796Z,9.07
2022-11-12T16:40:44.828Z,9.02
2022-11-12T16:43:14.581Z,9.05
2022-11-12T16:45:44.543Z,9.03
2022-11-12T16:48:16.984Z,9.10
2022-11-12T16:50:46.574Z,9.23
2022-11-12T16:53:14.649Z,9.34
2022-11-12T16:55:43.464Z,9.25
2022-11-12T16:58:14.993Z,9.50
2022-11-12T17:00:46.539Z,9.54
2022-11-12T17:06:04.249Z,9.41
2022-11-12T17:08:34.089Z,9.27
2022-11-12T17:11:09.467Z,9.32
2022-11-12T17:13:39.543Z,9.26
2022-11-12T17:16:08.667Z,9.19
2022-11-12T17:18:37.253Z,9.08
2022-11-12T17:21:12.386Z,9.20
2022-11-12T17:23:41.703Z,9.34
2022-11-12T17:26:12.924Z,9.37
2022-11-12T17:28:41.386Z,9.31
2022-11-12T17:31:12.076Z,9.29
2022-11-12T17:33:41.458Z,9.34
2022-11-12T17:36:13.002Z,9.26
2022-11-12T17:38:41.376Z,9.20
2022-11-12T17:41:10.555Z,9.03
2022-11-12T17:43:38.790Z,8.99
2022-11-12T17:46:08.642Z,8.97
2022-11-12T17:48:38.587Z,9.00
2022-11-12T17:51:13.426Z,9.01
2022-11-12T17:53:41.904Z,8.93
2022-11-12T17:56:12.109Z,8.92
2022-11-12T17:58:40.680Z,8.99
2022-11-12T18:01:12.834Z,9.12
2022-11-12T18:03:41.395Z,9.25
2022-11-12T18:06:21.758Z,9.16
2022-11-12T18:08:54.191Z,9.04
2022-11-12T18:11:23.318Z,9.03
2022-11-12T18:13:51.936Z,8.90
2022-11-12T18:16:22.371Z,8.87
2022-11-12T18:18:50.987Z,8.90
2022-11-12T18:21:21.143Z,9.08
2022-11-12T18:23:49.307Z,9.01
2022-11-12T18:26:18.982Z,8.96
2022-11-12T18:28:52.441Z,9.17
2022-11-12T18:31:20.969Z,9.14
2022-11-12T18:33:49.665Z,9.01
2022-11-12T18:36:19.293Z,8.97
2022-11-12T18:38:50.871Z,9.04
2022-11-12T18:41:21.345Z,9.10
2022-11-12T18:43:49.480Z,9.07
2022-11-12T18:46:17.528Z,9.12
2022-11-12T18:48:45.615Z,9.26
2022-11-12T18:51:15.712Z,9.33
2022-11-12T18:53:44.008Z,9.26
2022-11-12T18:56:15.438Z,9.14
2022-11-12T18:58:43.972Z,9.05
2022-11-12T19:01:16.069Z,9.13
2022-11-12T19:03:44.882Z,9.07
2022-11-12T19:06:13.929Z,9.13
2022-11-12T19:08:42.395Z,9.34
2022-11-12T19:11:12.422Z,9.35
2022-11-12T19:13:42.831Z,9.13
2022-11-12T19:16:14.649Z,9.06
2022-11-12T19:18:43.454Z,9.02
2022-11-12T19:21:13.623Z,9.20
2022-11-12T19:23:43.247Z,9.12
2022-11-12T19:26:15.203Z,9.13
2022-11-12T19:28:45.466Z,9.16
2022-11-12T19:31:15.775Z,9.22
2022-11-12T19:33:43.924Z,9.20
2022-11-12T19:36:15.221Z,9.24
2022-11-12T19:38:43.545Z,9.23
2022-11-12T19:41:18.790Z,9.17
2022-11-12T19:43:49.220Z,9.16
2022-11-12T19:46:17.798Z,9.19
2022-11-12T19:48:45.980Z,9.17
2022-11-12T19:51:14.934Z,9.09
2022-11-12T19:53:45.758Z,9.19
2022-11-12T19:56:17.276Z,9.15
2022-11-12T19:58:50.591Z,9.15
2022-11-12T20:01:20.606Z,9.15
2022-11-12T20:03:48.682Z,9.03
2022-11-12T20:06:18.890Z,8.98
2022-11-12T20:08:47.172Z,8.91
2022-11-12T20:11:16.320Z,9.08
2022-11-12T20:13:45.194Z,9.08
2022-11-12T20:16:20.976Z,9.09
2022-11-12T20:18:54.965Z,9.01
2022-11-12T20:21:23.135Z,9.06
2022-11-12T20:23:51.331Z,9.17
2022-11-12T20:26:19.514Z,9.23
2022-11-12T20:28:48.644Z,9.04
2022-11-12T20:31:20.801Z,9.08
2022-11-12T20:33:49.849Z,9.19
2022-11-12T20:36:20.679Z,9.21
2022-11-12T20:38:50.266Z,9.17
2022-11-12T20:41:20.483Z,9.11
2022-11-12T20:43:48.972Z,9.10
2022-11-12T20:46:18.414Z,9.12
2022-11-12T20:48:46.519Z,9.11
2022-11-12T20:51:23.872Z,9.10
2022-11-12T20:53:58.687Z,9.13
2022-11-12T20:56:28.023Z,9.11
2022-11-12T20:58:57.736Z,9.07
2022-11-12T21:01:29.076Z,9.11
2022-11-12T21:03:58.657Z,9.21
2022-11-12T21:06:28.986Z,9.20
2022-11-12T21:09:00.452Z,9.20
2022-11-12T21:11:28.664Z,9.09
2022-11-12T21:13:56.912Z,9.12
2022-11-12T21:16:26.329Z,9.19
2022-11-12T21:18:54.408Z,9.12
2022-11-12T21:21:22.998Z,9.06
2022-11-12T21:23:51.694Z,8.99
2022-11-12T21:26:21.268Z,8.98
2022-11-12T21:28:51.104Z,9.13
2022-11-12T21:31:21.346Z,9.21
2022-11-12T21:33:55.045Z,9.28
2022-11-12T21:36:24.353Z,9.27
2022-11-12T21:38:52.391Z,9.25
2022-11-12T21:41:21.835Z,9.23
2022-11-12T21:43:51.040Z,9.24
2022-11-12T21:46:20.972Z,9.24
2022-11-12T21:48:54.709Z,9.21
2022-11-12T21:51:26.377Z,9.23
2022-11-12T21:53:56.412Z,9.20
2022-11-12T21:56:25.143Z,9.13
2022-11-12T21:58:56.127Z,9.15
2022-11-12T22:01:26.150Z,8.96
2022-11-12T22:03:56.334Z,8.94
2022-11-12T22:06:28.068Z,8.97
2022-11-12T22:08:58.096Z,9.11
2022-11-12T22:11:27.602Z,9.15
2022-11-12T22:13:55.807Z,9.27
2022-11-12T22:16:25.634Z,9.31
2022-11-12T22:18:55.387Z,9.33
2022-11-12T22:21:26.508Z,9.25
2022-11-12T22:23:54.967Z,9.26
2022-11-12T22:26:26.868Z,9.26
2022-11-12T22:28:56.780Z,9.18
2022-11-12T22:31:28.176Z,9.24
2022-11-12T22:33:58.187Z,9.27
2022-11-12T22:36:29.959Z,9.24
2022-11-12T22:38:58.346Z,9.27
2022-11-12T22:41:27.709Z,9.35
2022-11-12T22:43:57.889Z,9.25
2022-11-12T22:46:27.943Z,9.24
2022-11-12T22:48:59.303Z,9.29
2022-11-12T22:51:32.008Z,9.23
2022-11-12T22:54:01.790Z,9.28
2022-11-12T22:56:33.241Z,9.30
2022-11-12T22:59:03.727Z,9.31
2022-11-12T23:01:34.075Z,9.30
2022-11-12T23:04:04.516Z,9.35
2022-11-12T23:06:34.220Z,9.31
2022-11-12T23:09:02.891Z,9.24
2022-11-12T23:11:31.823Z,9.08
2022-11-12T23:13:59.964Z,9.18
2022-11-12T23:16:31.837Z,9.22
2022-11-12T23:19:00.574Z,9.30
2022-11-12T23:21:32.024Z,9.22
2022-11-12T23:24:01.648Z,9.18
2022-11-12T23:26:32.338Z,9.29
2022-11-12T23:29:00.636Z,9.29
2022-11-12T23:31:31.129Z,9.28
2022-11-12T23:34:00.590Z,9.20
2022-11-12T23:36:29.363Z,9.13
2022-11-12T23:38:58.361Z,9.12
2022-11-12T23:41:29.377Z,9.07
2022-11-12T23:43:58.977Z,9.13
2022-11-12T23:46:27.212Z,9.18
2022-11-12T23:48:55.244Z,9.06
2022-11-12T23:51:23.989Z,9.11
2022-11-12T23:53:51.998Z,9.19
2022-11-12T23:56:20.875Z,9.28
2022-11-12T23:58:50.355Z,9.27
